Time;durP1;ratioP1;P1;durP2;ratioP2;P2;SDS_P1;SDS_P2;PMS_P1;PMS_P2;Temp;Humidity;BMP_temperature;BMP_pressure;BME280_temperature;BME280_humidity;BME280_pressure;Samples;Min_cycle;Max_cycle;Signal;HPM_P1;HPM_P2
2021/06/25 00:00:24;;;;;;;5.87;3.80;;;;;;;16.13;78.38;100673.11;1789301;80;21471;-69
2021/06/25 00:02:53;;;;;;;5.90;3.60;;;;;;;16.12;78.40;100670.61;1791309;80;20983;-69
2021/06/25 00:05:20;;;;;;;6.10;3.55;;;;;;;16.11;78.39;100671.66;1790967;80;21018;-70
2021/06/25 00:07:47;;;;;;;8.65;3.95;;;;;;;16.09;78.40;100666.97;1791303;80;21515;-69
2021/06/25 00:10:14;;;;;;;3.58;3.22;;;;;;;16.06;78.42;100669.55;1791100;80;20979;-69
2021/06/25 00:12:41;;;;;;;4.55;4.00;;;;;;;16.05;78.42;100673.27;1791312;80;21022;-69
2021/06/25 00:15:09;;;;;;;5.78;4.15;;;;;;;16.02;78.45;100676.36;1791175;80;21057;-70
2021/06/25 00:17:36;;;;;;;5.00;3.80;;;;;;;16.01;78.46;100680.06;1792405;80;21106;-69
2021/06/25 00:20:05;;;;;;;6.40;4.03;;;;;;;16.02;78.47;100679.05;1825341;78;20959;-69
2021/06/25 00:22:33;;;;;;;4.50;3.77;;;;;;;16.00;78.48;100681.12;1791438;80;21451;-69
2021/06/25 00:25:00;;;;;;;5.67;3.50;;;;;;;15.96;78.48;100669.92;1825334;78;20998;-69
2021/06/25 00:27:27;;;;;;;8.10;4.28;;;;;;;16.02;78.49;100677.70;1791384;80;21006;-69
2021/06/25 00:29:54;;;;;;;4.20;3.65;;;;;;;16.03;78.53;100681.23;1825540;78;21054;-69
2021/06/25 00:32:21;;;;;;;7.83;4.17;;;;;;;16.02;78.53;100679.05;1791181;80;21006;-69
2021/06/25 00:34:48;;;;;;;4.78;3.20;;;;;;;16.02;78.54;100683.59;1825541;78;20959;-69
2021/06/25 00:37:15;;;;;;;5.05;3.77;;;;;;;15.99;78.55;100672.21;1791260;80;20947;-69
2021/06/25 00:39:42;;;;;;;5.12;3.42;;;;;;;15.95;78.55;100678.17;1825345;78;21472;-69
2021/06/25 00:42:10;;;;;;;4.22;3.37;;;;;;;15.92;78.58;100672.69;1791425;80;21032;-69
2021/06/25 00:44:39;;;;;;;6.33;3.60;;;;;;;15.94;78.59;100667.92;1825085;78;20999;-69
2021/06/25 00:47:10;;;;;;;5.25;3.45;;;;;;;15.91;78.57;100667.49;1802518;78;20958;-69
2021/06/25 00:49:39;;;;;;;5.60;3.80;;;;;;;15.89;78.57;100672.25;1793149;80;21030;-69
2021/06/25 00:52:07;;;;;;;6.47;3.62;;;;;;;15.86;78.60;100675.34;1793747;80;20991;-69
2021/06/25 00:54:34;;;;;;;6.45;4.25;;;;;;;15.84;78.61;100678.72;1765141;79;21038;-69
2021/06/25 00:57:01;;;;;;;6.33;4.00;;;;;;;15.83;78.65;100682.46;1793709;78;21438;-69
2021/06/25 00:59:28;;;;;;;4.47;3.50;;;;;;;15.83;78.65;100683.81;1759845;81;21015;-69
2021/06/25 01:01:55;;;;;;;5.85;3.92;;;;;;;15.78;78.65;100682.20;1793099;80;20970;-69
2021/06/25 01:04:22;;;;;;;4.65;3.30;;;;;;;15.75;78.68;100670.50;1759964;81;21567;-69
2021/06/25 01:06:49;;;;;;;9.00;4.42;;;;;;;15.71;78.68;100665.20;1792833;80;21006;-69
2021/06/25 01:09:17;;;;;;;5.80;3.72;;;;;;;15.64;78.68;100670.53;1760075;81;21012;-69
2021/06/25 01:11:44;;;;;;;7.05;4.55;;;;;;;15.59;78.73;100673.47;1793108;80;21522;-69
2021/06/25 01:14:11;;;;;;;6.08;3.77;;;;;;;15.53;78.73;100680.98;1760133;81;21055;-69
2021/06/25 01:16:39;;;;;;;6.53;3.50;;;;;;;15.48;78.78;100685.08;1808670;78;20978;-69
2021/06/25 01:19:13;;;;;;;5.03;3.50;;;;;;;15.45;78.80;100686.79;1801009;78;21009;-69
2021/06/25 01:21:42;;;;;;;6.40;4.47;;;;;;;15.44;78.85;100673.05;1791409;80;21479;-69
2021/06/25 01:24:09;;;;;;;6.50;3.95;;;;;;;15.40;78.84;100650.27;1791448;80;21420;-69
2021/06/25 01:26:36;;;;;;;7.25;4.65;;;;;;;15.32;78.84;100645.03;1791478;80;21439;-69
2021/06/25 01:29:03;;;;;;;6.87;4.20;;;;;;;15.20;79.10;100622.39;1791390;80;20974;-69
2021/06/25 01:31:31;;;;;;;5.62;4.05;;;;;;;15.20;79.10;100622.39;1788827;79;21032;-69
2021/06/25 01:33:58;;;;;;;12.03;4.17;;;;;;;15.10;79.16;100627.27;1773819;80;21467;-69
2021/06/25 01:36:25;;;;;;;8.58;4.37;;;;;;;15.10;79.16;100627.27;1773855;80;20982;-69
2021/06/25 01:38:52;;;;;;;5.42;3.58;;;;;;;14.96;79.10;100608.03;1773970;80;21029;-69
2021/06/25 01:41:19;;;;;;;6.67;3.77;;;;;;;15.02;79.15;100623.91;1773837;80;21447;-69
2021/06/25 01:43:46;;;;;;;5.28;4.25;;;;;;;14.96;79.19;100613.41;1775856;79;21037;-69
2021/06/25 01:46:15;;;;;;;5.90;4.58;;;;;;;14.90;79.21;100614.19;1792525;78;20971;-69
2021/06/25 01:48:42;;;;;;;8.70;4.75;;;;;;;14.85;79.27;100621.47;1765247;80;21526;-69
2021/06/25 01:51:09;;;;;;;8.88;4.60;;;;;;;14.83;79.35;100618.16;1792970;80;21510;-69
2021/06/25 01:53:36;;;;;;;7.00;4.45;;;;;;;14.80;79.35;100617.70;1770640;80;21049;-69
2021/06/25 01:56:04;;;;;;;8.78;4.20;;;;;;;14.76;79.40;100612.39;1761222;81;20987;-69
2021/06/25 01:58:31;;;;;;;5.83;4.50;;;;;;;14.72;79.42;100609.77;1761255;81;20995;-69
2021/06/25 02:01:14;;;;;;;8.05;4.30;;;;;;;14.68;79.50;100606.63;1761199;81;20979;-69
2021/06/25 02:03:43;;;;;;;5.65;4.53;;;;;;;14.63;79.53;100590.80;1761296;81;20986;-69
2021/06/25 02:06:11;;;;;;;6.83;4.50;;;;;;;14.61;79.63;100594.16;1761590;81;21069;-69
2021/06/25 02:08:39;;;;;;;5.75;4.30;;;;;;;14.61;79.68;100599.03;1761451;81;21064;-69
2021/06/25 02:11:07;;;;;;;7.47;4.92;;;;;;;14.60;79.71;100595.20;1761356;81;21467;-69
2021/06/25 02:13:34;;;;;;;5.60;4.42;;;;;;;14.45;79.73;100561.20;1761971;80;21275;-69
2021/06/25 02:16:01;;;;;;;5.20;4.50;;;;;;;14.54;79.82;100595.95;1769027;80;21475;-69
2021/06/25 02:18:28;;;;;;;9.83;5.33;;;;;;;14.49;79.86;100598.69;1759942;80;21011;-69
2021/06/25 02:20:55;;;;;;;6.60;5.35;;;;;;;14.52;79.89;100608.74;1792514;80;21505;-69
2021/06/25 02:23:22;;;;;;;9.73;5.60;;;;;;;14.52;79.95;100611.42;1773035;80;20976;-69
2021/06/25 02:25:49;;;;;;;8.65;5.42;;;;;;;14.52;79.98;100615.45;1792609;80;20982;-69
2021/06/25 02:28:16;;;;;;;6.95;5.00;;;;;;;14.52;80.02;100630.21;1792598;79;21046;-69
2021/06/25 02:30:43;;;;;;;10.58;5.90;;;;;;;14.44;80.07;100642.72;1773096;81;20999;-69
2021/06/25 02:33:10;;;;;;;10.68;6.12;;;;;;;14.38;80.08;100656.91;1792577;80;21061;-69
2021/06/25 02:35:38;;;;;;;10.60;6.72;;;;;;;14.34;80.15;100654.27;1772957;81;21046;-69
2021/06/25 02:38:05;;;;;;;12.35;7.55;;;;;;;14.30;80.24;100656.97;1792667;80;21088;-69
2021/06/25 02:40:32;;;;;;;11.43;7.65;;;;;;;14.27;80.30;100664.56;1773056;81;20992;-69
2021/06/25 02:42:59;;;;;;;13.22;6.55;;;;;;;14.26;80.36;100662.38;1792517;80;21018;-69
2021/06/25 02:45:26;;;;;;;10.25;6.75;;;;;;;14.26;80.38;100660.20;1767229;80;21641;-69
2021/06/25 02:47:53;;;;;;;10.60;6.10;;;;;;;14.30;80.46;100661.50;1742391;82;20999;-69
2021/06/25 02:50:20;;;;;;;8.73;6.37;;;;;;;14.35;80.51;100647.89;1761120;81;20994;-69
2021/06/25 02:52:47;;;;;;;8.95;6.90;;;;;;;14.38;80.54;100646.17;1761495;81;21038;-69
2021/06/25 02:55:14;;;;;;;8.40;5.80;;;;;;;14.39;80.58;100649.69;1764527;79;21293;-69
2021/06/25 02:57:41;;;;;;;13.22;7.40;;;;;;;14.43;80.63;100665.20;1780503;80;21033;-69
2021/06/25 03:00:14;;;;;;;9.30;6.60;;;;;;;14.40;80.69;100674.98;1780389;80;20986;-69
2021/06/25 03:02:41;;;;;;;15.83;6.65;;;;;;;14.44;80.71;100658.83;1780547;79;20993;-69
2021/06/25 03:05:10;;;;;;;7.50;6.35;;;;;;;14.46;80.70;100640.67;1780150;80;21026;-69
2021/06/25 03:07:37;;;;;;;10.20;6.45;;;;;;;14.46;80.74;100640.67;1780513;80;21010;-69
2021/06/25 03:10:05;;;;;;;9.08;6.15;;;;;;;14.46;80.78;100636.64;1780653;80;21518;-69
2021/06/25 03:12:33;;;;;;;7.25;6.47;;;;;;;14.48;80.82;100626.57;1780355;80;21057;-69
2021/06/25 03:15:00;;;;;;;8.65;7.58;;;;;;;14.53;80.98;100634.56;1788623;79;21508;-69
2021/06/25 03:17:27;;;;;;;7.55;6.55;;;;;;;14.53;80.98;100634.56;1796902;79;21039;-69
2021/06/25 03:19:54;;;;;;;9.98;7.55;;;;;;;14.60;80.88;100640.84;1765717;81;21058;-69
2021/06/25 03:22:21;;;;;;;10.15;7.85;;;;;;;14.61;80.86;100649.19;1796801;79;21717;-69
2021/06/25 03:24:48;;;;;;;12.85;8.50;;;;;;;14.60;80.86;100653.72;1765565;81;20991;-69
2021/06/25 03:27:15;;;;;;;12.53;9.50;;;;;;;14.60;80.91;100656.41;1796940;79;21494;-69
2021/06/25 03:29:43;;;;;;;12.33;9.70;;;;;;;14.63;80.92;100659.25;1765266;80;21030;-69
2021/06/25 03:32:10;;;;;;;11.05;8.55;;;;;;;14.68;81.02;100656.80;1797018;79;21006;-69
2021/06/25 03:34:37;;;;;;;9.33;8.33;;;;;;;14.76;80.95;100656.69;1765535;81;21170;-69
2021/06/25 03:37:04;;;;;;;10.95;8.45;;;;;;;14.83;80.92;100653.56;1796775;79;20998;-70
2021/06/25 03:39:31;;;;;;;12.05;8.60;;;;;;;14.87;80.90;100662.41;1765649;80;21030;-69
2021/06/25 03:41:58;;;;;;;10.63;9.05;;;;;;;14.85;80.92;100667.62;1796740;79;20970;-69
2021/06/25 03:44:25;;;;;;;13.05;8.75;;;;;;;14.85;80.95;100671.14;1766241;80;20983;-69
2021/06/25 03:46:52;;;;;;;14.63;9.33;;;;;;;14.90;80.99;100674.61;1793972;79;21020;-69
2021/06/25 03:49:19;;;;;;;11.85;8.43;;;;;;;14.91;81.00;100676.28;1767050;81;20981;-69
2021/06/25 03:51:46;;;;;;;11.40;8.20;;;;;;;14.81;81.04;100659.66;1798833;79;20991;-69
2021/06/25 03:54:13;;;;;;;12.23;8.35;;;;;;;14.95;80.96;100676.22;1798695;79;20964;-69
2021/06/25 03:56:40;;;;;;;8.95;8.03;;;;;;;14.98;80.94;100679.86;1793504;80;21454;-69
2021/06/25 03:59:07;;;;;;;10.03;7.85;;;;;;;14.95;80.91;100676.22;1781545;80;22082;-69
2021/06/25 04:01:34;;;;;;;11.22;8.60;;;;;;;14.75;80.80;100657.70;1787923;80;21024;-69
2021/06/25 04:04:01;;;;;;;14.93;8.45;;;;;;;14.79;80.94;100684.50;1787938;80;21450;-69
2021/06/25 04:06:28;;;;;;;10.00;8.08;;;;;;;14.79;80.94;100684.50;1787896;80;21508;-69
2021/06/25 04:08:55;;;;;;;13.20;8.90;;;;;;;14.77;80.98;100691.42;1787894;80;20997;-69
2021/06/25 04:11:22;;;;;;;14.68;10.55;;;;;;;14.76;80.99;100696.97;1787936;80;21036;-69
2021/06/25 04:13:49;;;;;;;13.53;11.20;;;;;;;14.76;81.02;100695.63;1783388;79;20994;-69
2021/06/25 04:16:16;;;;;;;12.35;9.78;;;;;;;14.78;81.06;100700.28;1796054;79;20982;-69
2021/06/25 04:18:44;;;;;;;15.98;9.10;;;;;;;14.79;81.06;100703.30;1765572;81;20983;-69
2021/06/25 04:21:11;;;;;;;10.75;9.65;;;;;;;14.79;81.06;100700.61;1796124;79;20982;-69
2021/06/25 04:23:38;;;;;;;10.82;8.48;;;;;;;14.79;81.06;100700.61;1765844;81;21066;-69
2021/06/25 04:26:05;;;;;;;10.43;7.83;;;;;;;14.84;81.03;100702.23;1796061;79;21487;-69
2021/06/25 04:28:33;;;;;;;10.93;8.38;;;;;;;14.88;81.06;100700.84;1765786;81;21013;-69
2021/06/25 04:31:01;;;;;;;9.98;6.90;;;;;;;14.91;81.04;100689.70;1769478;79;20978;-69
2021/06/25 04:33:28;;;;;;;8.90;7.50;;;;;;;14.98;81.03;100704.03;1765774;81;20998;-70
2021/06/25 04:35:55;;;;;;;10.98;8.10;;;;;;;15.01;81.05;100700.97;1796155;79;21032;-69
2021/06/25 04:38:22;;;;;;;9.55;8.00;;;;;;;15.07;81.05;100692.13;1765750;81;20994;-69
2021/06/25 04:40:50;;;;;;;10.80;8.75;;;;;;;15.22;81.05;100695.59;1796102;79;21032;-69
2021/06/25 04:43:17;;;;;;;9.43;8.43;;;;;;;15.33;81.07;100697.77;1769770;79;21704;-69
2021/06/25 04:45:44;;;;;;;12.00;7.78;;;;;;;15.33;81.07;100697.77;1826234;78;21014;-69
2021/06/25 04:48:15;;;;;;;9.98;7.10;;;;;;;15.32;80.97;100698.78;1797236;79;20987;-69
2021/06/25 04:50:43;;;;;;;9.20;7.50;;;;;;;15.38;80.99;100699.84;1828627;78;20959;-69
2021/06/25 04:53:10;;;;;;;9.13;6.47;;;;;;;15.40;80.93;100695.13;1797189;79;20994;-69
2021/06/25 04:55:44;;;;;;;9.50;5.58;;;;;;;15.45;80.89;100700.23;1825247;78;20975;-69
2021/06/25 04:58:14;;;;;;;8.08;6.47;;;;;;;15.57;80.89;100694.36;1825738;78;21027;-69
2021/06/25 05:00:41;;;;;;;9.83;7.87;;;;;;;15.77;80.83;100695.33;1791254;80;21017;-69
2021/06/25 05:03:08;;;;;;;9.75;7.15;;;;;;;16.01;80.71;100701.59;1825379;78;20999;-69
2021/06/25 05:05:37;;;;;;;9.38;6.53;;;;;;;16.12;80.55;100699.69;1791325;80;20955;-69
2021/06/25 05:08:05;;;;;;;7.08;5.60;;;;;;;16.13;80.54;100703.22;1825072;78;21006;-69
2021/06/25 05:10:32;;;;;;;7.40;6.00;;;;;;;16.22;80.45;100706.89;1792846;80;20987;-69
2021/06/25 05:12:59;;;;;;;7.90;5.92;;;;;;;16.27;80.34;100713.86;1820654;78;21480;-69
2021/06/25 05:15:26;;;;;;;8.70;6.20;;;;;;;16.29;80.24;100717.17;1789443;80;20971;-69
2021/06/25 05:17:53;;;;;;;6.15;5.50;;;;;;;16.39;80.13;100708.25;1790962;80;21026;-69
2021/06/25 05:20:20;;;;;;;8.65;5.60;;;;;;;16.52;80.04;100713.35;1791278;80;21042;-69
2021/06/25 05:22:47;;;;;;;9.28;6.83;;;;;;;16.55;79.83;100710.26;1791215;80;21014;-69
2021/06/25 05:25:14;;;;;;;6.85;5.60;;;;;;;16.52;79.76;100706.62;1791128;80;21696;-69
2021/06/25 05:27:41;;;;;;;8.65;6.55;;;;;;;16.50;79.59;100710.88;1791206;80;20986;-69
2021/06/25 05:30:10;;;;;;;7.33;5.65;;;;;;;16.55;79.50;100712.95;1791176;80;21467;-69
2021/06/25 05:32:37;;;;;;;8.63;6.83;;;;;;;16.58;79.40;100716.10;1791268;80;21042;-69
2021/06/25 05:35:05;;;;;;;11.97;6.97;;;;;;;16.48;79.25;100720.48;1791194;80;20995;-69
2021/06/25 05:37:32;;;;;;;8.43;6.30;;;;;;;16.39;79.17;100712.28;1791205;80;21106;-69
2021/06/25 05:39:59;;;;;;;8.15;6.37;;;;;;;16.41;79.08;100713.41;1791140;80;21482;-69
2021/06/25 05:42:26;;;;;;;8.20;6.47;;;;;;;16.50;79.00;100716.27;1791219;80;21032;-69
2021/06/25 05:44:53;;;;;;;6.50;5.87;;;;;;;16.54;78.90;100717.50;1778646;80;21024;-70
2021/06/25 05:47:20;;;;;;;29.72;8.35;;;;;;;16.57;78.79;100719.02;1786954;80;21008;-70
2021/06/25 05:49:47;;;;;;;9.00;6.95;;;;;;;16.53;78.70;100716.38;1780765;79;21913;-70
2021/06/25 05:52:14;;;;;;;7.95;6.10;;;;;;;16.58;78.61;100719.31;1814314;78;20971;-70
2021/06/25 05:54:42;;;;;;;34.23;8.03;;;;;;;16.67;78.56;100719.47;1763324;79;21131;-70
2021/06/25 05:57:09;;;;;;;9.25;6.42;;;;;;;16.74;78.47;100721.66;1791558;80;20986;-70
2021/06/25 05:59:36;;;;;;;8.35;6.70;;;;;;;16.84;78.43;100716.72;1760710;81;21033;-70
2021/06/25 06:02:03;;;;;;;7.85;6.65;;;;;;;16.80;78.33;100719.50;1792330;80;21005;-70
2021/06/25 06:04:30;;;;;;;10.13;6.70;;;;;;;16.88;78.25;100715.29;1761125;81;20992;-70
2021/06/25 06:06:57;;;;;;;12.30;6.83;;;;;;;17.02;78.15;100719.67;1813392;78;20976;-70
2021/06/25 06:09:24;;;;;;;9.35;7.72;;;;;;;17.10;78.02;100716.77;1812487;78;20974;-70
2021/06/25 06:11:51;;;;;;;8.13;6.15;;;;;;;17.26;77.88;100712.35;1792987;78;21431;-70
2021/06/25 06:14:18;;;;;;;9.48;6.58;;;;;;;17.43;77.76;100716.82;1796540;78;21012;-70
2021/06/25 06:16:46;;;;;;;10.20;5.72;;;;;;;17.62;77.67;100719.25;1811797;78;21518;-69
2021/06/25 06:19:15;;;;;;;29.50;7.40;;;;;;;17.83;77.45;100717.69;1817582;78;20990;-70
2021/06/25 06:33:01;;;;;;;11.30;5.92;;;;;;;18.80;76.39;100716.26;1789399;80;21025;-70
2021/06/25 06:35:21;;;;;;;11.75;5.97;;;;;;;18.82;76.15;100727.70;1782822;79;21056;-71
2021/06/25 06:37:50;;;;;;;7.33;5.70;;;;;;;19.00;75.92;100722.38;1786123;79;21069;-70
2021/06/25 06:40:19;;;;;;;7.77;6.13;;;;;;;19.16;75.63;100721.05;1784502;78;21115;-70
2021/06/25 06:42:48;;;;;;;91.10;16.57;;;;;;;18.92;75.36;100699.16;1808277;78;21980;-70
2021/06/25 06:45:16;;;;;;;9.85;7.10;;;;;;;18.97;75.07;100716.06;1784195;78;21060;-70
2021/06/25 06:47:44;;;;;;;13.38;8.25;;;;;;;18.99;74.87;100712.63;1769770;80;21014;-70
2021/06/25 06:50:12;;;;;;;9.38;7.05;;;;;;;18.96;74.73;100715.22;1779011;79;21125;-71
2021/06/25 06:52:44;;;;;;;9.30;6.40;;;;;;;18.93;74.58;100718.88;1786316;79;21567;-70
2021/06/25 06:55:16;;;;;;;10.20;7.17;;;;;;;18.74;74.31;100722.53;1790571;79;21053;-70
2021/06/25 06:57:43;;;;;;;9.33;7.97;;;;;;;18.79;74.23;100734.86;1781808;78;21039;-70
2021/06/25 07:00:11;;;;;;;10.43;7.58;;;;;;;18.99;74.07;100741.02;1787095;79;21499;-70
2021/06/25 07:02:39;;;;;;;11.70;7.70;;;;;;;19.11;73.85;100735.73;1815950;78;21029;-70
2021/06/25 07:05:08;;;;;;;11.12;7.72;;;;;;;19.21;73.62;100737.46;1775137;80;21019;-71
2021/06/25 07:07:35;;;;;;;12.88;8.88;;;;;;;19.42;73.43;100737.94;1780368;79;21022;-70
2021/06/25 07:10:03;;;;;;;12.10;7.85;;;;;;;19.53;73.13;100738.31;1782540;79;21053;-70
2021/06/25 07:12:30;;;;;;;12.95;8.43;;;;;;;19.86;72.91;100730.72;1768887;79;20992;-70
2021/06/25 07:14:57;;;;;;;11.93;7.92;;;;;;;20.48;72.76;100728.87;1776955;79;21495;-70
2021/06/25 07:17:24;;;;;;;9.80;8.28;;;;;;;20.95;72.13;100725.33;1775632;79;21520;-70
2021/06/25 07:19:51;;;;;;;9.88;8.15;;;;;;;21.02;71.59;100723.35;1851497;77;20983;-70
2021/06/25 07:22:18;;;;;;;9.53;8.38;;;;;;;20.70;71.33;100719.20;1783952;79;20997;-70
2021/06/25 07:24:45;;;;;;;34.25;10.28;;;;;;;20.30;71.09;100726.44;1850218;77;20979;-70
2021/06/25 07:27:12;;;;;;;13.32;9.10;;;;;;;20.06;71.04;100724.59;1838895;77;20942;-70
2021/06/25 07:29:39;;;;;;;10.72;8.50;;;;;;;19.89;70.90;100726.21;1791870;79;21278;-70
2021/06/25 07:32:07;;;;;;;10.90;8.38;;;;;;;19.65;70.71;100723.00;1795052;79;21446;-70
2021/06/25 07:34:34;;;;;;;11.35;9.05;;;;;;;19.49;70.59;100723.56;1818507;77;21522;-70
2021/06/25 07:37:01;;;;;;;9.90;8.28;;;;;;;19.43;70.48;100711.20;1822141;77;21030;-70
2021/06/25 07:39:28;;;;;;;9.88;7.78;;;;;;;19.47;70.35;100710.77;1791272;78;21098;-70
2021/06/25 07:41:55;;;;;;;10.25;8.18;;;;;;;19.49;70.12;100714.09;1782383;80;21094;-70
2021/06/25 07:44:22;;;;;;;12.20;8.40;;;;;;;19.61;70.03;100710.44;1797360;78;20974;-70
2021/06/25 07:46:49;;;;;;;14.95;9.35;;;;;;;19.88;69.91;100711.02;1821199;78;20967;-70
2021/06/25 07:49:16;;;;;;;12.85;8.18;;;;;;;20.09;69.67;100714.66;1791750;80;21394;-70
2021/06/25 07:51:44;;;;;;;13.70;8.65;;;;;;;20.06;69.54;100719.16;1802870;78;20960;-70
2021/06/25 07:54:11;;;;;;;9.48;8.23;;;;;;;20.04;69.45;100723.99;1783693;80;21189;-70
2021/06/25 07:56:38;;;;;;;11.75;8.73;;;;;;;20.01;69.27;100724.44;1812146;78;20883;-70
2021/06/25 07:59:05;;;;;;;9.68;7.35;;;;;;;20.00;69.08;100720.07;1823949;78;20972;-70
2021/06/25 08:01:32;;;;;;;13.28;8.58;;;;;;;19.92;69.08;100719.00;1823953;78;21444;-70
2021/06/25 08:03:59;;;;;;;14.63;9.00;;;;;;;19.77;68.98;100713.92;1817059;77;21010;-70
2021/06/25 08:06:28;;;;;;;11.38;8.48;;;;;;;19.73;68.96;100718.67;1819545;77;21548;-70
2021/06/25 08:08:55;;;;;;;14.05;9.35;;;;;;;19.79;68.90;100717.77;1783456;80;21070;-70
2021/06/25 08:11:22;;;;;;;11.70;8.43;;;;;;;19.82;68.91;100710.56;1780595;80;21423;-70
2021/06/25 08:13:49;;;;;;;13.68;8.50;;;;;;;19.87;68.80;100710.73;1794577;78;21057;-70
2021/06/25 08:16:16;;;;;;;8.70;7.70;;;;;;;19.93;68.79;100715.25;1773985;79;21751;-70
2021/06/25 08:18:43;;;;;;;7.92;6.80;;;;;;;20.17;68.72;100725.72;1790853;78;21275;-70
2021/06/25 08:21:10;;;;;;;10.30;8.03;;;;;;;20.32;68.55;100721.64;1784054;80;21021;-70
2021/06/25 08:23:37;;;;;;;9.90;7.90;;;;;;;20.45;68.36;100720.64;1783357;80;21019;-70
2021/06/25 08:26:04;;;;;;;9.93;7.78;;;;;;;20.56;68.17;100721.25;1792831;78;21479;-70
2021/06/25 08:28:32;;;;;;;8.75;7.50;;;;;;;20.55;67.99;100718.78;1796913;79;21029;-69
2021/06/25 08:30:59;;;;;;;12.07;8.65;;;;;;;20.52;67.97;100723.27;1778736;79;21228;-70
2021/06/25 08:33:26;;;;;;;12.47;7.58;;;;;;;20.60;67.92;100717.55;1785106;78;20906;-70
2021/06/25 08:35:53;;;;;;;8.93;7.97;;;;;;;20.66;67.80;100722.05;1796611;79;21034;-70
2021/06/25 08:38:20;;;;;;;9.13;8.23;;;;;;;20.77;67.70;100721.29;1789435;78;21734;-70
2021/06/25 08:40:47;;;;;;;8.28;6.70;;;;;;;20.94;67.52;100717.72;1785711;79;21066;-70
2021/06/25 08:43:15;;;;;;;12.75;7.70;;;;;;;20.99;67.39;100719.75;1759238;79;21491;-70
2021/06/25 08:45:43;;;;;;;13.20;8.68;;;;;;;21.13;67.14;100713.11;1822122;77;20993;-70
2021/06/25 08:48:10;;;;;;;31.73;9.90;;;;;;;21.16;66.91;100712.64;1820090;77;21024;-70
2021/06/25 08:50:44;;;;;;;9.60;7.33;;;;;;;21.07;66.62;100722.14;1824085;78;20974;-70
2021/06/25 08:53:08;;;;;;;11.22;8.00;;;;;;;20.90;66.48;100725.17;1818600;78;20912;-70
2021/06/25 08:55:43;;;;;;;8.78;6.92;;;;;;;20.85;66.45;100719.63;1821826;78;21499;-70
2021/06/25 08:58:04;;;;;;;10.13;7.25;;;;;;;20.80;66.35;100723.54;1811862;78;21469;-70
2021/06/25 09:00:31;;;;;;;7.70;5.95;;;;;;;20.80;66.23;100731.16;1787487;80;21036;-70
2021/06/25 09:02:58;;;;;;;9.68;6.85;;;;;;;20.94;66.10;100730.44;1720543;79;20996;-70
2021/06/25 09:05:28;;;;;;;8.95;6.15;;;;;;;21.00;65.93;100734.97;1800416;78;21072;-70
2021/06/25 09:07:56;;;;;;;10.18;6.70;;;;;;;20.97;65.75;100734.60;1777548;79;21845;-70
2021/06/25 09:10:36;;;;;;;11.55;6.05;;;;;;;20.89;65.68;100742.00;1766221;81;21489;-70
2021/06/25 09:13:09;;;;;;;8.48;6.67;;;;;;;20.89;65.50;100749.30;1784629;78;21009;-70
2021/06/25 09:15:38;;;;;;;8.83;7.28;;;;;;;20.87;65.37;100748.68;1775874;79;21492;-70
2021/06/25 09:18:10;;;;;;;9.98;6.37;;;;;;;20.90;65.21;100749.58;1750144;80;21082;-70
2021/06/25 09:20:45;;;;;;;13.30;6.33;;;;;;;20.80;65.18;100750.66;1777818;80;21480;-70
2021/06/25 09:23:15;;;;;;;9.65;6.20;;;;;;;20.72;65.08;100757.20;1808403;79;20996;-70
2021/06/25 09:25:59;;;;;;;7.37;6.65;;;;;;;20.60;64.95;100757.69;1798093;79;20990;-69
2021/06/25 09:28:39;;;;;;;9.13;6.60;;;;;;;20.43;64.94;100756.11;1787613;78;20995;-70
2021/06/25 09:31:22;;;;;;;8.00;6.12;;;;;;;20.51;64.95;100761.77;1777813;79;21078;-70
2021/06/25 09:33:54;;;;;;;12.33;6.40;;;;;;;20.65;64.87;100766.50;1737424;81;21490;-70
2021/06/25 09:36:30;;;;;;;10.93;6.70;;;;;;;20.67;64.80;100761.67;1765832;79;21091;-70
2021/06/25 09:39:01;;;;;;;8.78;6.17;;;;;;;20.64;64.70;100760.25;1770119;79;20988;-70
2021/06/25 09:41:28;;;;;;;9.20;7.10;;;;;;;20.51;64.69;100755.52;1797019;79;21575;-70
2021/06/25 09:44:01;;;;;;;8.25;6.22;;;;;;;20.48;64.66;100758.13;1776539;79;21061;-70
2021/06/25 09:46:32;;;;;;;9.33;6.08;;;;;;;20.43;64.58;100757.47;1790749;79;21160;-70
2021/06/25 09:49:05;;;;;;;9.55;6.80;;;;;;;20.26;64.63;100757.73;1786927;79;20976;-70
2021/06/25 09:51:34;;;;;;;10.65;7.60;;;;;;;20.19;64.73;100756.97;1762870;81;20995;-70
2021/06/25 09:54:14;;;;;;;7.75;6.62;;;;;;;20.12;64.88;100755.37;1766426;81;21019;-68
2021/06/25 10:02:21;;;;;;;11.22;6.80;;;;;;;19.73;65.25;100767.39;1761210;80;21621;-70
2021/06/25 10:04:51;;;;;;;9.95;7.05;;;;;;;19.60;65.46;100768.85;1759904;78;20977;-69
2021/06/25 10:07:27;;;;;;;8.13;6.58;;;;;;;19.57;65.68;100769.27;1788496;80;21017;-69
2021/06/25 10:10:07;;;;;;;8.40;6.90;;;;;;;19.53;65.82;100776.19;1792968;78;21052;-69
2021/06/25 10:12:32;;;;;;;10.10;6.35;;;;;;;19.51;66.01;100772.86;1777994;79;21126;-69
2021/06/25 10:15:00;;;;;;;11.90;7.95;;;;;;;19.40;66.21;100781.95;1810175;78;21442;-69
2021/06/25 10:17:28;;;;;;;12.78;8.15;;;;;;;19.41;66.36;100775.53;1781200;80;21044;-70
2021/06/25 10:20:10;;;;;;;13.28;8.53;;;;;;;19.44;66.57;100772.91;1798874;78;21576;-69
2021/06/25 10:22:38;;;;;;;14.05;7.05;;;;;;;19.50;66.82;100773.89;1765158;79;21054;-69
2021/06/25 10:25:07;;;;;;;12.88;8.95;;;;;;;19.52;67.02;100774.52;1840711;77;21575;-69
2021/06/25 10:27:35;;;;;;;19.25;12.13;;;;;;;19.46;67.33;100762.68;1847254;77;20989;-69
2021/06/25 10:30:05;;;;;;;9.45;6.65;;;;;;;19.32;67.60;100757.02;1802420;78;20978;-69
2021/06/25 10:32:32;;;;;;;12.05;7.40;;;;;;;19.34;67.81;100751.72;1792785;80;21006;-69
2021/06/25 10:34:59;;;;;;;17.57;8.03;;;;;;;19.42;67.91;100752.02;1783679;78;21045;-69
2021/06/25 10:37:28;;;;;;;13.50;8.78;;;;;;;19.51;68.05;100754.75;1778095;79;21002;-69
2021/06/25 10:39:55;;;;;;;15.03;10.03;;;;;;;19.59;68.15;100757.72;1814698;78;21010;-69
2021/06/25 10:42:40;;;;;;;9.13;7.33;;;;;;;19.63;68.34;100754.36;1792921;80;21180;-69
2021/06/25 10:45:08;;;;;;;9.73;7.67;;;;;;;19.72;68.39;100759.79;1825301;78;21479;-69
2021/06/25 10:47:35;;;;;;;8.83;6.90;;;;;;;19.69;68.44;100761.59;1792977;80;21026;-69
2021/06/25 10:50:10;;;;;;;10.80;7.35;;;;;;;19.65;68.58;100759.53;1825464;78;21693;-69
2021/06/25 10:52:41;;;;;;;11.83;7.20;;;;;;;19.62;68.74;100758.10;1792930;80;21600;-69
2021/06/25 10:55:16;;;;;;;8.58;6.97;;;;;;;19.47;68.90;100749.98;1825396;78;21440;-69
2021/06/25 10:57:54;;;;;;;10.68;7.30;;;;;;;19.26;69.14;100743.86;1794821;79;20958;-69
2021/06/25 11:00:28;;;;;;;14.28;9.18;;;;;;;19.31;69.40;100739.16;1829159;78;20971;-69
2021/06/25 11:02:55;;;;;;;11.95;9.00;;;;;;;19.46;69.64;100738.88;1796491;79;21439;-69
2021/06/25 11:05:32;;;;;;;10.88;8.20;;;;;;;19.56;69.78;100735.99;1799954;78;21007;-69
2021/06/25 11:08:00;;;;;;;15.88;9.08;;;;;;;19.61;69.88;100731.25;1802999;79;21378;-69
2021/06/25 11:10:34;;;;;;;11.43;7.67;;;;;;;19.50;70.02;100731.44;1829281;78;21423;-69
2021/06/25 11:13:21;;;;;;;11.80;9.43;;;;;;;19.49;70.13;100737.09;1829171;78;21010;-69
2021/06/25 11:15:52;;;;;;;12.98;9.63;;;;;;;19.42;70.24;100735.79;1796379;79;21037;-69
2021/06/25 11:18:27;;;;;;;15.05;10.03;;;;;;;19.38;70.36;100731.83;1829263;78;20959;-69
2021/06/25 11:20:57;;;;;;;18.82;9.50;;;;;;;19.44;70.46;100736.38;1796503;79;20950;-69
2021/06/25 11:23:30;;;;;;;13.10;9.10;;;;;;;19.54;70.61;100731.83;1828809;78;21006;-69
2021/06/25 11:26:01;;;;;;;9.90;8.78;;;;;;;19.65;70.66;100729.77;1825406;78;21452;-69
2021/06/25 11:28:37;;;;;;;10.50;8.55;;;;;;;19.74;70.71;100725.72;1796552;79;21015;-69
2021/06/25 11:31:18;;;;;;;12.82;8.90;;;;;;;19.83;70.76;100729.81;1829061;78;20960;-70
2021/06/25 11:33:54;;;;;;;13.65;9.25;;;;;;;19.98;70.69;100725.41;1791653;79;21057;-69
2021/06/25 11:36:47;;;;;;;12.53;9.30;;;;;;;20.11;70.77;100721.22;1810810;78;21031;-69
2021/06/25 11:39:32;;;;;;;11.73;8.88;;;;;;;20.06;70.75;100731.35;1796170;79;21029;-69
2021/06/25 11:42:09;;;;;;;13.72;9.13;;;;;;;20.13;70.75;100730.77;1764422;81;21842;-69
2021/06/25 11:44:49;;;;;;;12.03;8.93;;;;;;;20.28;70.67;100730.44;1768291;78;20966;-70